createdAt,value
2017-08-07T00:01:34.495Z,18.60
2017-08-07T00:04:01.393Z,18.37
2017-08-07T00:06:27.791Z,17.81
2017-08-07T00:08:54.173Z,17.65
2017-08-07T00:11:20.620Z,17.92
2017-08-07T00:13:47.014Z,18.07
2017-08-07T00:16:13.355Z,18.13
2017-08-07T00:18:39.734Z,18.10
2017-08-07T00:21:06.172Z,17.84
2017-08-07T00:23:32.531Z,17.54
2017-08-07T00:25:58.883Z,17.58
2017-08-07T00:28:25.272Z,17.56
2017-08-07T00:30:51.820Z,17.75
2017-08-07T00:33:18.551Z,18.00
2017-08-07T00:35:44.973Z,18.11
2017-08-07T00:38:11.397Z,18.13
2017-08-07T00:40:37.772Z,18.15
2017-08-07T00:43:04.175Z,18.07
2017-08-07T00:45:30.551Z,18.02
2017-08-07T00:47:56.923Z,17.87
2017-08-07T00:50:23.289Z,17.82
2017-08-07T00:52:49.658Z,17.49
2017-08-07T00:55:16.120Z,17.39
2017-08-07T00:57:42.494Z,17.61
2017-08-07T01:00:08.915Z,17.75
2017-08-07T01:02:35.297Z,17.82
2017-08-07T01:05:01.732Z,17.88
2017-08-07T01:07:28.112Z,17.86
2017-08-07T01:09:54.670Z,17.62
2017-08-07T01:12:21.092Z,17.09
2017-08-07T01:14:48.339Z,16.55
2017-08-07T01:17:16.311Z,16.70
2017-08-07T01:19:43.328Z,16.65
2017-08-07T01:22:09.773Z,16.93
2017-08-07T01:24:36.456Z,16.82
2017-08-07T01:27:02.963Z,16.68
2017-08-07T01:29:30.167Z,16.36
2017-08-07T01:31:56.567Z,16.59
2017-08-07T01:34:22.998Z,16.94
2017-08-07T01:36:50.156Z,17.04
2017-08-07T01:39:20.286Z,17.11
2017-08-07T01:41:46.960Z,17.07
2017-08-07T01:44:18.452Z,17.13
2017-08-07T01:46:45.060Z,17.23
2017-08-07T01:49:11.465Z,17.25
2017-08-07T01:51:37.859Z,16.59
2017-08-07T01:54:04.277Z,16.79
2017-08-07T01:56:30.682Z,16.59
2017-08-07T01:58:57.087Z,16.64
2017-08-07T02:01:23.540Z,16.76
2017-08-07T02:03:49.924Z,16.71
2017-08-07T02:06:16.313Z,16.49
2017-08-07T02:08:42.707Z,16.49
2017-08-07T02:11:09.075Z,16.58
2017-08-07T02:13:35.452Z,16.61
2017-08-07T02:16:01.877Z,16.65
2017-08-07T02:18:28.257Z,16.58
2017-08-07T02:20:55.017Z,16.66
2017-08-07T02:23:21.404Z,16.48
2017-08-07T02:25:47.790Z,16.67
2017-08-07T02:28:14.184Z,16.35
2017-08-07T02:30:40.572Z,16.12
2017-08-07T02:33:06.940Z,16.18
2017-08-07T02:35:33.330Z,16.13
2017-08-07T02:37:59.708Z,16.35
2017-08-07T02:40:26.110Z,16.45
2017-08-07T02:42:52.475Z,16.46
2017-08-07T02:45:18.860Z,16.32
2017-08-07T02:47:45.264Z,16.14
2017-08-07T02:50:11.695Z,15.96
2017-08-07T02:52:38.107Z,15.85
2017-08-07T02:55:04.509Z,15.72
2017-08-07T02:57:30.920Z,15.68
2017-08-07T02:59:57.299Z,15.75
2017-08-07T03:02:23.662Z,15.46
2017-08-07T03:04:50.064Z,15.83
2017-08-07T03:07:16.448Z,15.97
2017-08-07T03:09:42.839Z,15.83
2017-08-07T03:12:09.232Z,15.92
2017-08-07T03:14:35.620Z,16.00
2017-08-07T03:17:01.987Z,16.24
2017-08-07T03:19:28.341Z,16.02
2017-08-07T03:21:54.730Z,16.13
2017-08-07T03:24:21.121Z,15.98
2017-08-07T03:26:47.507Z,15.78
2017-08-07T03:29:13.956Z,15.64
2017-08-07T03:31:40.387Z,15.56
2017-08-07T03:34:06.795Z,15.69
2017-08-07T03:36:33.173Z,15.52
2017-08-07T03:38:59.549Z,15.34
2017-08-07T03:41:25.946Z,15.35
2017-08-07T03:43:52.332Z,15.30
2017-08-07T03:46:18.704Z,15.18
2017-08-07T03:48:45.072Z,15.43
2017-08-07T03:51:11.474Z,15.14
2017-08-07T03:53:37.884Z,15.06
2017-08-07T03:56:04.291Z,15.14
2017-08-07T03:58:30.679Z,15.16
2017-08-07T04:00:57.117Z,15.19
2017-08-07T04:03:23.489Z,14.96
2017-08-07T04:05:49.867Z,15.08
2017-08-07T04:08:16.257Z,14.96
2017-08-07T04:10:42.654Z,14.98
2017-08-07T04:13:09.057Z,15.06
2017-08-07T04:15:35.473Z,15.24
2017-08-07T04:18:01.852Z,14.99
2017-08-07T04:20:28.234Z,14.93
2017-08-07T04:22:54.627Z,14.90
2017-08-07T04:25:21.012Z,15.27
2017-08-07T04:27:47.398Z,15.15
2017-08-07T04:30:13.765Z,15.16
2017-08-07T04:32:40.171Z,15.36
2017-08-07T04:35:06.555Z,15.43
2017-08-07T04:37:32.948Z,15.18
2017-08-07T04:39:59.336Z,15.02
2017-08-07T04:42:25.787Z,14.99
2017-08-07T04:44:52.165Z,15.14
2017-08-07T04:47:18.560Z,15.14
2017-08-07T04:49:44.920Z,15.12
2017-08-07T04:52:11.328Z,15.11
2017-08-07T04:54:37.731Z,15.21
2017-08-07T04:57:04.156Z,15.16
2017-08-07T04:59:30.535Z,15.20
2017-08-07T05:01:56.909Z,15.26
2017-08-07T05:04:23.295Z,15.14
2017-08-07T05:06:49.691Z,15.13
2017-08-07T05:09:16.109Z,15.36
2017-08-07T05:11:42.484Z,15.38
2017-08-07T05:14:08.857Z,15.21
2017-08-07T05:16:35.259Z,15.24
2017-08-07T05:19:01.654Z,15.41
2017-08-07T05:21:28.030Z,15.00
2017-08-07T05:23:54.413Z,15.02
2017-08-07T05:26:20.812Z,14.95
2017-08-07T05:28:48.090Z,15.03
2017-08-07T05:31:14.465Z,15.30
2017-08-07T05:33:40.827Z,15.18
2017-08-07T05:36:07.222Z,15.36
2017-08-07T05:38:33.615Z,15.33
2017-08-07T05:41:00.025Z,15.46
2017-08-07T05:43:26.464Z,15.46
2017-08-07T05:45:52.835Z,15.45
2017-08-07T05:48:19.239Z,15.31
2017-08-07T05:50:45.625Z,15.61
2017-08-07T05:53:12.078Z,15.60
2017-08-07T05:55:38.473Z,15.49
2017-08-07T05:58:04.859Z,15.83
2017-08-07T06:00:31.270Z,15.74
2017-08-07T06:02:57.639Z,15.82
2017-08-07T06:05:24.066Z,15.74
2017-08-07T06:07:50.442Z,15.85
2017-08-07T06:10:16.853Z,15.85
2017-08-07T06:12:43.295Z,15.91
2017-08-07T06:15:09.643Z,15.78
2017-08-07T06:17:36.005Z,15.84
2017-08-07T06:20:02.397Z,15.85
2017-08-07T06:22:28.784Z,15.89
2017-08-07T06:24:55.198Z,15.94
2017-08-07T06:27:21.607Z,16.09
2017-08-07T06:29:47.964Z,16.08
2017-08-07T06:32:14.364Z,16.16
2017-08-07T06:34:40.727Z,16.25
2017-08-07T06:37:07.112Z,16.29
2017-08-07T06:39:33.473Z,16.39
2017-08-07T06:41:59.875Z,16.20
2017-08-07T06:44:26.240Z,16.47
2017-08-07T06:46:52.605Z,16.33
2017-08-07T06:49:18.981Z,16.54
2017-08-07T06:51:45.418Z,16.57
2017-08-07T06:54:11.835Z,16.67
2017-08-07T06:56:38.236Z,16.93
2017-08-07T06:59:04.579Z,17.19
2017-08-07T07:01:30.960Z,17.17
2017-08-07T07:03:57.359Z,17.40
2017-08-07T07:06:23.773Z,17.59
2017-08-07T07:08:50.153Z,17.65
2017-08-07T07:11:16.534Z,17.43
2017-08-07T07:13:42.882Z,17.61
2017-08-07T07:16:09.249Z,17.61
2017-08-07T07:18:35.663Z,17.54
2017-08-07T07:21:02.005Z,17.80
2017-08-07T07:23:28.342Z,17.83
2017-08-07T07:25:54.712Z,17.76
2017-08-07T07:28:21.061Z,18.01
2017-08-07T07:30:47.417Z,18.18
2017-08-07T07:33:13.812Z,18.55
2017-08-07T07:35:40.177Z,18.33
2017-08-07T07:38:06.561Z,18.33
2017-08-07T07:40:32.931Z,18.75
2017-08-07T07:42:59.363Z,18.81
2017-08-07T07:45:25.747Z,18.89
2017-08-07T07:47:52.100Z,19.13
2017-08-07T07:50:18.472Z,19.49
2017-08-07T07:52:44.855Z,19.03
2017-08-07T07:55:11.283Z,19.41
2017-08-07T07:57:37.632Z,19.72
2017-08-07T08:00:04.013Z,19.78
2017-08-07T08:02:30.400Z,19.58
2017-08-07T08:04:56.792Z,19.69
2017-08-07T08:07:23.203Z,19.72
2017-08-07T08:09:49.603Z,20.06
2017-08-07T08:12:16.007Z,20.09
2017-08-07T08:14:42.385Z,20.31
2017-08-07T08:17:08.742Z,20.13
2017-08-07T08:19:35.173Z,20.28
2017-08-07T08:22:01.541Z,20.51
2017-08-07T08:24:27.906Z,20.38
2017-08-07T08:26:54.311Z,20.57
2017-08-07T08:29:20.692Z,21.16
2017-08-07T08:31:47.120Z,20.86
2017-08-07T08:34:13.488Z,21.01
2017-08-07T08:36:39.859Z,21.42
2017-08-07T08:39:06.228Z,21.38
2017-08-07T08:41:32.604Z,21.79
2017-08-07T08:43:58.958Z,21.93
2017-08-07T08:46:25.322Z,21.87
2017-08-07T08:48:51.667Z,21.91
2017-08-07T08:51:18.034Z,21.91
2017-08-07T08:53:44.429Z,21.80
2017-08-07T08:56:10.815Z,21.97
2017-08-07T08:58:37.232Z,22.47
2017-08-07T09:01:03.614Z,22.64
2017-08-07T09:03:30.037Z,22.97
2017-08-07T09:05:56.442Z,23.18
2017-08-07T09:08:22.886Z,23.19
2017-08-07T09:10:49.256Z,23.04
2017-08-07T09:13:15.641Z,22.89
2017-08-07T09:15:42.097Z,23.32
2017-08-07T09:18:08.489Z,23.32
2017-08-07T09:20:34.891Z,23.28
2017-08-07T09:23:01.260Z,23.70
2017-08-07T09:25:27.640Z,23.87
2017-08-07T09:27:54.016Z,23.80
2017-08-07T09:30:20.393Z,23.79
2017-08-07T09:32:46.781Z,23.91
2017-08-07T09:35:13.142Z,23.75
2017-08-07T09:37:39.537Z,23.78
2017-08-07T09:40:05.916Z,24.00
2017-08-07T09:42:32.327Z,24.07
2017-08-07T09:44:58.702Z,24.40
2017-08-07T09:47:25.079Z,24.16
2017-08-07T09:49:51.482Z,24.21
2017-08-07T09:52:17.880Z,23.46
2017-08-07T09:54:44.251Z,23.70
2017-08-07T09:57:10.666Z,23.99
2017-08-07T09:59:37.096Z,23.93
2017-08-07T10:02:03.502Z,24.31
2017-08-07T10:04:29.879Z,24.20
2017-08-07T10:06:56.241Z,24.29
2017-08-07T10:09:22.640Z,24.03
2017-08-07T10:11:49.019Z,24.28
2017-08-07T10:14:15.423Z,24.28
2017-08-07T10:16:41.794Z,24.44
2017-08-07T10:19:08.177Z,24.46
2017-08-07T10:21:34.576Z,24.24
2017-08-07T10:24:00.987Z,23.82
2017-08-07T10:26:27.357Z,23.81
2017-08-07T10:28:53.755Z,23.94
2017-08-07T10:31:20.114Z,24.04
2017-08-07T10:33:46.510Z,24.73
2017-08-07T10:36:12.908Z,25.29
2017-08-07T10:38:39.347Z,25.09
2017-08-07T10:41:05.758Z,25.08
2017-08-07T10:43:32.138Z,25.15
2017-08-07T10:45:58.515Z,25.50
2017-08-07T10:48:24.875Z,25.49
2017-08-07T10:50:51.261Z,25.57
2017-08-07T10:53:17.671Z,25.52
2017-08-07T10:55:44.054Z,25.63
2017-08-07T10:58:10.431Z,25.78
2017-08-07T11:00:36.806Z,26.19
2017-08-07T11:03:03.181Z,26.32
2017-08-07T11:05:29.568Z,26.09
2017-08-07T11:07:55.941Z,26.07
2017-08-07T11:10:22.338Z,26.21
2017-08-07T11:12:48.699Z,26.16
2017-08-07T11:15:15.111Z,26.03
2017-08-07T11:17:41.485Z,25.93
2017-08-07T11:20:07.839Z,26.17
2017-08-07T11:22:34.198Z,26.59
2017-08-07T11:25:00.549Z,26.60
2017-08-07T11:27:26.904Z,26.72
2017-08-07T11:29:53.320Z,26.67
2017-08-07T11:32:19.707Z,26.28
2017-08-07T11:34:46.089Z,26.06
2017-08-07T11:37:12.545Z,26.11
2017-08-07T11:39:38.946Z,26.06
2017-08-07T11:42:05.322Z,26.62
2017-08-07T11:44:31.720Z,26.67
2017-08-07T11:46:58.131Z,26.77
2017-08-07T11:49:24.517Z,26.95
2017-08-07T11:51:50.892Z,26.72
2017-08-07T11:54:17.310Z,26.75
2017-08-07T11:56:43.734Z,26.30
2017-08-07T11:59:10.120Z,26.47
2017-08-07T12:01:36.504Z,26.37
2017-08-07T12:04:02.917Z,26.35
2017-08-07T12:06:29.570Z,26.44
2017-08-07T12:08:55.952Z,26.41
2017-08-07T12:11:22.341Z,26.46
2017-08-07T12:13:48.721Z,27.06
2017-08-07T12:16:15.076Z,27.57
2017-08-07T12:18:41.438Z,27.39
2017-08-07T12:21:07.798Z,27.49
2017-08-07T12:23:34.168Z,27.90
2017-08-07T12:26:00.531Z,27.71
2017-08-07T12:28:26.928Z,27.48
2017-08-07T12:30:53.324Z,27.00
2017-08-07T12:33:19.742Z,27.06
2017-08-07T12:35:46.182Z,27.11
2017-08-07T12:38:12.573Z,26.98
2017-08-07T12:40:38.951Z,27.56
2017-08-07T12:43:05.342Z,27.23
2017-08-07T12:45:31.783Z,27.23
2017-08-07T12:47:58.196Z,27.63
2017-08-07T12:50:24.574Z,27.21
2017-08-07T12:52:50.947Z,27.67
2017-08-07T12:55:17.430Z,28.39
2017-08-07T12:57:43.804Z,27.94
2017-08-07T13:00:10.194Z,28.05
2017-08-07T13:02:36.615Z,27.84
2017-08-07T13:05:03.023Z,27.51
2017-08-07T13:07:29.435Z,27.38
2017-08-07T13:09:56.208Z,27.91
2017-08-07T13:12:22.620Z,27.94
2017-08-07T13:14:49.025Z,27.90
2017-08-07T13:17:15.413Z,28.20
2017-08-07T13:19:41.775Z,27.69
2017-08-07T13:22:08.169Z,27.61
2017-08-07T13:24:34.834Z,27.92
2017-08-07T13:27:01.194Z,27.68
2017-08-07T13:29:27.603Z,27.76
2017-08-07T13:31:54.008Z,27.43
2017-08-07T13:34:20.377Z,27.57
2017-08-07T13:36:46.768Z,27.69
2017-08-07T13:39:13.534Z,28.08
2017-08-07T13:41:39.987Z,28.36
2017-08-07T13:44:06.391Z,28.10
2017-08-07T13:46:32.781Z,27.97
2017-08-07T13:48:59.160Z,28.05
2017-08-07T13:51:25.553Z,28.49
2017-08-07T13:53:51.923Z,28.79
2017-08-07T13:56:18.315Z,28.45
2017-08-07T13:58:44.697Z,28.05
2017-08-07T14:01:11.066Z,28.12
2017-08-07T14:03:37.460Z,27.68
2017-08-07T14:06:03.901Z,27.70
2017-08-07T14:08:30.333Z,27.61
2017-08-07T14:10:56.726Z,27.95
2017-08-07T14:13:23.403Z,28.53
2017-08-07T14:15:49.781Z,28.45
2017-08-07T14:18:16.158Z,28.31
2017-08-07T14:20:42.534Z,28.35
2017-08-07T14:23:08.902Z,28.52
2017-08-07T14:25:35.296Z,28.48
2017-08-07T14:28:01.719Z,28.96
2017-08-07T14:30:28.708Z,28.68
2017-08-07T14:32:55.157Z,28.87
2017-08-07T14:35:21.538Z,29.15
2017-08-07T14:37:47.937Z,29.25
2017-08-07T14:40:14.296Z,29.04
2017-08-07T14:42:40.686Z,29.38
2017-08-07T14:45:07.149Z,29.58
2017-08-07T14:47:33.530Z,29.28
2017-08-07T14:49:59.961Z,29.07
2017-08-07T14:52:26.344Z,28.90
2017-08-07T14:54:52.787Z,29.04
2017-08-07T14:57:19.174Z,28.96
2017-08-07T14:59:45.543Z,29.05
2017-08-07T15:02:11.945Z,28.65
2017-08-07T15:04:38.330Z,28.39
2017-08-07T15:07:04.732Z,28.31
2017-08-07T15:09:31.103Z,28.25
2017-08-07T15:11:57.492Z,28.13
2017-08-07T15:14:23.868Z,28.25
2017-08-07T15:16:50.262Z,28.14
2017-08-07T15:19:16.633Z,28.20
2017-08-07T15:21:43.014Z,28.13
2017-08-07T15:24:09.381Z,28.31
2017-08-07T15:26:35.741Z,28.79
2017-08-07T15:29:02.112Z,29.34
2017-08-07T15:31:28.981Z,29.13
2017-08-07T15:33:55.368Z,28.81
2017-08-07T15:36:21.829Z,28.69
2017-08-07T15:38:48.529Z,28.81
2017-08-07T15:41:14.891Z,28.74
2017-08-07T15:43:41.302Z,28.59
2017-08-07T15:46:07.734Z,28.31
2017-08-07T15:48:34.121Z,28.07
2017-08-07T15:51:00.519Z,28.38
2017-08-07T15:53:26.894Z,28.53
2017-08-07T15:55:53.284Z,28.63
2017-08-07T15:58:19.685Z,28.65
2017-08-07T16:00:46.069Z,28.64
2017-08-07T16:03:12.895Z,28.77
2017-08-07T16:05:39.369Z,28.76
2017-08-07T16:08:05.760Z,28.99
2017-08-07T16:10:32.134Z,28.60
2017-08-07T16:12:58.588Z,28.58
2017-08-07T16:15:24.988Z,28.64
2017-08-07T16:17:51.385Z,28.47
2017-08-07T16:20:17.758Z,28.27
2017-08-07T16:22:44.591Z,28.40
2017-08-07T16:25:11.221Z,28.50
2017-08-07T16:27:37.624Z,28.27
2017-08-07T16:30:04.083Z,28.20
2017-08-07T16:32:30.447Z,28.02
2017-08-07T16:34:56.837Z,27.91
2017-08-07T16:37:23.266Z,27.85
2017-08-07T16:39:49.620Z,27.90
2017-08-07T16:42:16.010Z,28.12
2017-08-07T16:44:42.391Z,28.02
2017-08-07T16:47:08.765Z,27.89
2017-08-07T16:49:35.165Z,27.68
2017-08-07T16:52:01.534Z,27.74
2017-08-07T16:54:27.967Z,27.81
2017-08-07T16:56:54.386Z,27.65
2017-08-07T16:59:20.784Z,27.59
2017-08-07T17:01:47.168Z,27.48
2017-08-07T17:04:13.566Z,27.30
2017-08-07T17:06:39.964Z,27.23
2017-08-07T17:09:06.367Z,27.30
2017-08-07T17:11:32.770Z,27.12
2017-08-07T17:13:59.164Z,27.12
2017-08-07T17:16:25.553Z,27.10
2017-08-07T17:18:51.922Z,27.07
2017-08-07T17:21:18.332Z,27.09
2017-08-07T17:23:44.727Z,27.06
2017-08-07T17:26:11.118Z,27.06
2017-08-07T17:28:37.475Z,26.96
2017-08-07T17:31:03.871Z,27.03
2017-08-07T17:33:30.225Z,27.06
2017-08-07T17:35:56.605Z,27.10
2017-08-07T17:38:22.987Z,26.84
2017-08-07T17:40:49.393Z,26.57
2017-08-07T17:43:15.787Z,26.45
2017-08-07T17:45:42.208Z,26.38
2017-08-07T17:48:08.869Z,26.34
2017-08-07T17:50:35.255Z,26.31
2017-08-07T17:53:01.631Z,26.32
2017-08-07T17:55:28.020Z,26.27
2017-08-07T17:57:54.681Z,26.38
2017-08-07T18:00:21.072Z,26.33
2017-08-07T18:02:47.462Z,26.26
2017-08-07T18:05:14.088Z,26.25
2017-08-07T18:07:41.035Z,26.19
2017-08-07T18:10:07.516Z,26.16
2017-08-07T18:12:34.313Z,26.02
2017-08-07T18:15:01.426Z,25.86
2017-08-07T18:17:28.066Z,25.84
2017-08-07T18:19:55.077Z,25.88
2017-08-07T18:22:21.963Z,25.90
2017-08-07T18:24:48.372Z,25.81
2017-08-07T18:27:14.777Z,25.74
2017-08-07T18:29:41.142Z,25.74
2017-08-07T18:32:07.570Z,25.67
2017-08-07T18:34:33.972Z,25.56
2017-08-07T18:37:01.067Z,25.52
2017-08-07T18:39:27.515Z,25.38
2017-08-07T18:41:54.297Z,25.16
2017-08-07T18:44:20.753Z,25.11
2017-08-07T18:46:47.177Z,25.32
2017-08-07T18:49:13.545Z,25.27
2017-08-07T18:51:39.976Z,25.24
2017-08-07T18:54:06.355Z,25.17
2017-08-07T18:56:32.746Z,25.09
2017-08-07T18:58:59.141Z,24.95
2017-08-07T19:01:25.539Z,24.79
2017-08-07T19:03:51.910Z,24.89
2017-08-07T19:06:18.372Z,24.93
2017-08-07T19:08:44.752Z,24.86
2017-08-07T19:11:11.146Z,24.64
2017-08-07T19:13:37.549Z,24.43
2017-08-07T19:16:03.972Z,24.36
2017-08-07T19:18:30.400Z,24.38
2017-08-07T19:20:56.816Z,24.36
2017-08-07T19:23:23.271Z,24.14
2017-08-07T19:25:49.679Z,23.98
2017-08-07T19:28:16.074Z,23.92
2017-08-07T19:30:42.481Z,24.05
2017-08-07T19:33:08.903Z,24.11
2017-08-07T19:35:35.293Z,24.05
2017-08-07T19:38:02.157Z,23.99
2017-08-07T19:40:28.548Z,23.86
2017-08-07T19:42:54.935Z,23.86
2017-08-07T19:45:21.330Z,23.86
2017-08-07T19:47:47.704Z,23.85
2017-08-07T19:50:14.105Z,23.85
2017-08-07T19:52:40.485Z,23.81
2017-08-07T19:55:06.912Z,23.55
2017-08-07T19:57:33.328Z,23.62
2017-08-07T19:59:59.723Z,23.56
2017-08-07T20:02:26.141Z,23.41
2017-08-07T20:04:52.511Z,23.39
2017-08-07T20:07:19.448Z,23.49
2017-08-07T20:09:46.018Z,23.47
2017-08-07T20:12:12.605Z,23.56
2017-08-07T20:14:38.982Z,23.26
2017-08-07T20:17:05.713Z,23.14
2017-08-07T20:19:32.161Z,23.07
2017-08-07T20:21:58.671Z,23.17
2017-08-07T20:24:25.106Z,23.25
2017-08-07T20:26:51.510Z,23.23
2017-08-07T20:29:18.141Z,23.20
2017-08-07T20:31:44.530Z,23.16
2017-08-07T20:34:10.935Z,22.96
2017-08-07T20:36:37.713Z,22.88
2017-08-07T20:39:04.153Z,22.96
2017-08-07T20:41:30.680Z,22.93
2017-08-07T20:43:57.120Z,22.72
2017-08-07T20:46:23.485Z,22.77
2017-08-07T20:48:50.389Z,22.76
2017-08-07T20:51:16.791Z,22.56
2017-08-07T20:53:43.645Z,22.58
2017-08-07T20:56:10.583Z,22.28
2017-08-07T20:58:37.553Z,22.30
2017-08-07T21:01:04.362Z,22.42
2017-08-07T21:03:31.197Z,22.67
2017-08-07T21:06:01.279Z,22.65
2017-08-07T21:08:31.500Z,22.56
2017-08-07T21:10:58.130Z,22.52
2017-08-07T21:13:24.524Z,22.46
2017-08-07T21:15:50.964Z,22.30
2017-08-07T21:18:17.616Z,22.37
2017-08-07T21:20:43.975Z,22.24
2017-08-07T21:23:10.587Z,22.30
2017-08-07T21:25:36.973Z,22.44
2017-08-07T21:28:03.338Z,22.29
2017-08-07T21:30:29.731Z,21.74
2017-08-07T21:32:56.581Z,21.93
2017-08-07T21:35:22.937Z,21.93
2017-08-07T21:37:49.299Z,21.76
2017-08-07T21:40:16.053Z,21.86
2017-08-07T21:42:42.920Z,21.91
2017-08-07T21:45:09.275Z,21.97
2017-08-07T21:47:35.824Z,22.00
2017-08-07T21:50:02.350Z,21.91
2017-08-07T21:52:28.744Z,21.94
2017-08-07T21:54:55.189Z,21.97
2017-08-07T21:57:21.708Z,21.89
2017-08-07T21:59:48.124Z,22.04
2017-08-07T22:02:14.499Z,21.87
2017-08-07T22:04:40.857Z,21.83
2017-08-07T22:07:07.381Z,21.59
2017-08-07T22:09:33.732Z,21.71
2017-08-07T22:12:00.070Z,21.53
2017-08-07T22:14:26.591Z,21.39
2017-08-07T22:16:52.941Z,21.28
2017-08-07T22:19:19.313Z,21.31
2017-08-07T22:21:45.659Z,21.50
2017-08-07T22:24:12.223Z,21.46
2017-08-07T22:26:38.588Z,21.38
2017-08-07T22:29:04.954Z,21.58
2017-08-07T22:31:31.457Z,21.54
2017-08-07T22:33:58.246Z,21.50
2017-08-07T22:36:24.594Z,21.53
2017-08-07T22:38:50.980Z,21.52
2017-08-07T22:41:17.437Z,21.59
2017-08-07T22:43:43.823Z,21.54
2017-08-07T22:46:10.155Z,21.53
2017-08-07T22:48:36.665Z,21.33
2017-08-07T22:51:03.011Z,21.33
2017-08-07T22:53:29.356Z,21.32
2017-08-07T22:55:55.708Z,21.29
2017-08-07T22:58:22.083Z,21.29
2017-08-07T23:00:48.447Z,21.30
2017-08-07T23:03:14.829Z,21.20
2017-08-07T23:05:41.370Z,21.08
2017-08-07T23:08:08.253Z,21.01
2017-08-07T23:10:34.609Z,21.09
2017-08-07T23:13:01.056Z,21.03
2017-08-07T23:15:27.689Z,20.97
2017-08-07T23:17:54.566Z,20.88
2017-08-07T23:20:20.942Z,20.65
2017-08-07T23:22:47.291Z,20.64
2017-08-07T23:25:13.653Z,20.53
2017-08-07T23:27:40.020Z,20.62
2017-08-07T23:30:06.456Z,20.58
2017-08-07T23:32:32.837Z,20.52
2017-08-07T23:34:59.196Z,20.63
2017-08-07T23:37:25.582Z,20.78
2017-08-07T23:39:51.969Z,20.64
2017-08-07T23:42:18.340Z,20.13
2017-08-07T23:44:44.901Z,20.21
2017-08-07T23:47:11.254Z,20.02
2017-08-07T23:49:37.605Z,19.90
2017-08-07T23:52:04.100Z,19.87
2017-08-07T23:54:31.121Z,20.05
2017-08-07T23:56:57.632Z,20.06
2017-08-07T23:59:24.036Z,20.14
